AFR4LG LFKC-LFPG
Flight info
| Callsign | AFR4LG |
|---|---|
| Flight time | 1h 24m |
| Altitude | 34000 |
| Route | SODRI G374 DIVUL M622 PIGOS DCT BARSO DCT OKTET DCT GIPNO DCT LOGNI DCT MOKIP DCT ARFOZ DCT TINIL |
| Aircraft | A320/M-SDE3FGHIRWY/LB1 |
Departure
| Time | 2026-05-05 11:04 |
|---|---|
| Airport | Calvi Sainte Catherine Airport (LFKC) |
Arrival
| Time | 2026-05-05 12:29 |
|---|---|
| Airport | Charles de Gaulle International Airport (LFPG) |
| Time | Latitude | Longitude | Altitude | Speed | Heading |
|---|---|---|---|---|---|
| 2026-05-05 10:48 | 42.52518 | 8.79078 | 190 ft | 0 kts | 300° |
| 2026-05-05 10:50 | 42.52518 | 8.79079 | 190 ft | 0 kts | 300° |
| 2026-05-05 10:57 | 42.52517 | 8.79081 | 190 ft | 2 kts | 300° |
| 2026-05-05 10:58 | 42.52508 | 8.79113 | 190 ft | 4 kts | 275° |
| 2026-05-05 10:58 | 42.52511 | 8.79146 | 190 ft | 4 kts | 232° |
| 2026-05-05 10:58 | 42.52529 | 8.79162 | 190 ft | 2 kts | 180° |
| 2026-05-05 10:58 | 42.52531 | 8.79162 | 190 ft | 0 kts | 179° |
| 2026-05-05 11:01 | 42.52489 | 8.79161 | 191 ft | 11 kts | 181° |
| 2026-05-05 11:01 | 42.52434 | 8.79179 | 193 ft | 6 kts | 116° |
| 2026-05-05 11:01 | 42.52433 | 8.79247 | 193 ft | 13 kts | 91° |
| 2026-05-05 11:01 | 42.52371 | 8.79302 | 198 ft | 9 kts | 181° |
| 2026-05-05 11:02 | 42.52304 | 8.79300 | 203 ft | 13 kts | 180° |
| 2026-05-05 11:02 | 42.52237 | 8.79300 | 208 ft | 6 kts | 180° |
| 2026-05-05 11:02 | 42.52177 | 8.79298 | 211 ft | 11 kts | 190° |
| 2026-05-05 11:02 | 42.52153 | 8.79236 | 213 ft | 6 kts | 266° |
| 2026-05-05 11:03 | 42.52133 | 8.79189 | 214 ft | 9 kts | 215° |
| 2026-05-05 11:03 | 42.52057 | 8.79206 | 218 ft | 12 kts | 122° |
| 2026-05-05 11:03 | 42.52070 | 8.79296 | 216 ft | 11 kts | 30° |
| 2026-05-05 11:03 | 42.52256 | 8.79306 | 207 ft | 62 kts | 359° |
| 2026-05-05 11:04 | 42.52960 | 8.79299 | 158 ft | 136 kts | 359° |
| 2026-05-05 11:04 | 42.54061 | 8.79294 | 414 ft | 167 kts | 359° |
| 2026-05-05 11:04 | 42.55225 | 8.79278 | 1135 ft | 167 kts | 359° |
| 2026-05-05 11:04 | 42.56379 | 8.79269 | 1955 ft | 165 kts | 359° |
| 2026-05-05 11:05 | 42.57523 | 8.79214 | 2434 ft | 173 kts | 348° |
| 2026-05-05 11:05 | 42.58554 | 8.78278 | 2666 ft | 193 kts | 301° |
| 2026-05-05 11:05 | 42.59076 | 8.76519 | 2958 ft | 208 kts | 291° |
| 2026-05-05 11:05 | 42.59846 | 8.74742 | 3212 ft | 233 kts | 308° |
| 2026-05-05 11:06 | 42.60561 | 8.73550 | 3459 ft | 249 kts | 308° |
| 2026-05-05 11:06 | 42.61696 | 8.71642 | 4009 ft | 266 kts | 308° |
| 2026-05-05 11:06 | 42.62851 | 8.69693 | 4812 ft | 271 kts | 308° |
| 2026-05-05 11:06 | 42.64045 | 8.67678 | 5648 ft | 275 kts | 308° |
| 2026-05-05 11:07 | 42.65258 | 8.65633 | 6463 ft | 279 kts | 308° |
| 2026-05-05 11:07 | 42.66434 | 8.63507 | 7250 ft | 283 kts | 304° |
| 2026-05-05 11:07 | 42.67560 | 8.61290 | 8015 ft | 287 kts | 303° |
| 2026-05-05 11:07 | 42.68676 | 8.59018 | 8754 ft | 291 kts | 303° |
| 2026-05-05 11:08 | 42.69801 | 8.56711 | 9466 ft | 295 kts | 303° |
| 2026-05-05 11:08 | 42.70986 | 8.54418 | 10146 ft | 299 kts | 310° |
| 2026-05-05 11:08 | 42.72553 | 8.52530 | 10663 ft | 310 kts | 327° |
| 2026-05-05 11:08 | 42.74572 | 8.51236 | 10802 ft | 332 kts | 339° |
| 2026-05-05 11:09 | 42.76774 | 8.50103 | 10928 ft | 352 kts | 339° |
| 2026-05-05 11:09 | 42.79122 | 8.48894 | 11172 ft | 366 kts | 339° |
| 2026-05-05 11:09 | 42.81529 | 8.47645 | 11649 ft | 372 kts | 339° |
| 2026-05-05 11:09 | 42.83960 | 8.46375 | 12165 ft | 375 kts | 339° |
| 2026-05-05 11:10 | 42.86411 | 8.45086 | 12672 ft | 379 kts | 338° |
| 2026-05-05 11:10 | 42.88880 | 8.43782 | 13163 ft | 382 kts | 338° |
| 2026-05-05 11:10 | 42.91365 | 8.42464 | 13635 ft | 385 kts | 338° |
| 2026-05-05 11:10 | 42.93839 | 8.41151 | 14083 ft | 388 kts | 338° |
| 2026-05-05 11:11 | 42.96368 | 8.39811 | 14518 ft | 391 kts | 338° |
| 2026-05-05 11:11 | 42.98821 | 8.38188 | 14919 ft | 393 kts | 328° |
| 2026-05-05 11:11 | 43.01003 | 8.35908 | 15310 ft | 395 kts | 316° |
| 2026-05-05 11:11 | 43.02804 | 8.33065 | 15684 ft | 397 kts | 304° |
| 2026-05-05 11:12 | 43.04192 | 8.29787 | 16040 ft | 399 kts | 297° |
| 2026-05-05 11:12 | 43.05481 | 8.26451 | 16384 ft | 402 kts | 297° |
| 2026-05-05 11:12 | 43.06795 | 8.23062 | 16716 ft | 404 kts | 297° |
| 2026-05-05 11:12 | 43.08122 | 8.19646 | 17034 ft | 406 kts | 297° |
| 2026-05-05 11:13 | 43.09456 | 8.16223 | 17336 ft | 409 kts | 297° |
| 2026-05-05 11:13 | 43.10795 | 8.12778 | 17623 ft | 411 kts | 297° |
| 2026-05-05 11:13 | 43.12136 | 8.09315 | 17897 ft | 413 kts | 297° |
| 2026-05-05 11:13 | 43.13483 | 8.05830 | 18157 ft | 414 kts | 297° |
| 2026-05-05 11:14 | 43.14828 | 8.02331 | 18405 ft | 416 kts | 297° |
| 2026-05-05 11:14 | 43.16162 | 7.98859 | 18637 ft | 418 kts | 297° |
| 2026-05-05 11:14 | 43.17518 | 7.95322 | 18864 ft | 420 kts | 297° |
| 2026-05-05 11:14 | 43.18884 | 7.91763 | 19086 ft | 421 kts | 297° |
| 2026-05-05 11:15 | 43.20251 | 7.88206 | 19300 ft | 423 kts | 297° |
| 2026-05-05 11:15 | 43.21624 | 7.84630 | 19508 ft | 424 kts | 297° |
| 2026-05-05 11:15 | 43.23001 | 7.81038 | 19708 ft | 426 kts | 297° |
| 2026-05-05 11:15 | 43.24380 | 7.77428 | 19900 ft | 427 kts | 297° |
| 2026-05-05 11:16 | 43.25761 | 7.73811 | 20082 ft | 429 kts | 297° |
| 2026-05-05 11:16 | 43.27148 | 7.70185 | 20255 ft | 430 kts | 297° |
| 2026-05-05 11:16 | 43.28571 | 7.66569 | 20413 ft | 432 kts | 301° |
| 2026-05-05 11:16 | 43.30367 | 7.63260 | 20566 ft | 433 kts | 312° |
| 2026-05-05 11:17 | 43.32590 | 7.60469 | 20714 ft | 435 kts | 323° |
| 2026-05-05 11:17 | 43.35157 | 7.58271 | 20856 ft | 436 kts | 330° |
| 2026-05-05 11:17 | 43.37779 | 7.56255 | 20992 ft | 437 kts | 330° |
| 2026-05-05 11:17 | 43.40433 | 7.54202 | 21129 ft | 438 kts | 330° |
| 2026-05-05 11:18 | 43.43091 | 7.52131 | 21262 ft | 439 kts | 330° |
| 2026-05-05 11:18 | 43.45754 | 7.50049 | 21390 ft | 440 kts | 330° |
| 2026-05-05 11:18 | 43.48417 | 7.47964 | 21515 ft | 441 kts | 330° |
| 2026-05-05 11:18 | 43.51089 | 7.45869 | 21640 ft | 442 kts | 330° |
| 2026-05-05 11:19 | 43.53767 | 7.43766 | 21765 ft | 443 kts | 330° |
| 2026-05-05 11:19 | 43.56440 | 7.41668 | 21890 ft | 443 kts | 330° |
| 2026-05-05 11:19 | 43.59126 | 7.39560 | 22015 ft | 444 kts | 330° |
| 2026-05-05 11:19 | 43.61812 | 7.37448 | 22140 ft | 444 kts | 329° |
| 2026-05-05 11:20 | 43.64435 | 7.35284 | 22264 ft | 444 kts | 328° |
| 2026-05-05 11:20 | 43.67036 | 7.32978 | 22389 ft | 444 kts | 326° |
| 2026-05-05 11:20 | 43.69606 | 7.30585 | 22514 ft | 444 kts | 325° |
| 2026-05-05 11:20 | 43.72150 | 7.28168 | 22639 ft | 444 kts | 325° |
| 2026-05-05 11:21 | 43.74700 | 7.25747 | 22764 ft | 445 kts | 325° |
| 2026-05-05 11:21 | 43.77262 | 7.23342 | 22889 ft | 445 kts | 326° |
| 2026-05-05 11:21 | 43.79835 | 7.20959 | 23013 ft | 445 kts | 326° |
| 2026-05-05 11:21 | 43.82415 | 7.18594 | 23138 ft | 445 kts | 326° |
| 2026-05-05 11:22 | 43.85003 | 7.16229 | 23263 ft | 445 kts | 326° |
| 2026-05-05 11:22 | 43.87585 | 7.13869 | 23387 ft | 445 kts | 326° |
| 2026-05-05 11:22 | 43.90168 | 7.11498 | 23513 ft | 445 kts | 326° |
| 2026-05-05 11:22 | 43.92745 | 7.09123 | 23636 ft | 444 kts | 326° |
| 2026-05-05 11:23 | 43.95319 | 7.06743 | 23762 ft | 444 kts | 326° |
| 2026-05-05 11:23 | 43.97889 | 7.04362 | 23886 ft | 444 kts | 326° |
| 2026-05-05 11:23 | 44.00459 | 7.01976 | 24011 ft | 444 kts | 326° |
| 2026-05-05 11:23 | 44.02995 | 6.99620 | 24134 ft | 444 kts | 326° |
| 2026-05-05 11:24 | 44.05564 | 6.97233 | 24259 ft | 444 kts | 326° |
| 2026-05-05 11:24 | 44.08130 | 6.94850 | 24384 ft | 443 kts | 326° |
| 2026-05-05 11:24 | 44.10696 | 6.92463 | 24509 ft | 443 kts | 326° |
| 2026-05-05 11:24 | 44.13254 | 6.90082 | 24634 ft | 442 kts | 326° |
| 2026-05-05 11:25 | 44.15813 | 6.87698 | 24759 ft | 442 kts | 326° |
| 2026-05-05 11:25 | 44.18372 | 6.85307 | 24884 ft | 441 kts | 326° |
| 2026-05-05 11:25 | 44.20921 | 6.82919 | 25009 ft | 441 kts | 326° |
| 2026-05-05 11:25 | 44.23433 | 6.80561 | 25132 ft | 440 kts | 326° |
| 2026-05-05 11:26 | 44.25976 | 6.78172 | 25257 ft | 439 kts | 326° |
| 2026-05-05 11:26 | 44.28513 | 6.75793 | 25382 ft | 439 kts | 326° |
| 2026-05-05 11:26 | 44.31045 | 6.73422 | 25505 ft | 438 kts | 326° |
| 2026-05-05 11:26 | 44.33573 | 6.71050 | 25631 ft | 437 kts | 326° |
| 2026-05-05 11:27 | 44.36093 | 6.68681 | 25755 ft | 436 kts | 326° |
| 2026-05-05 11:27 | 44.38605 | 6.66309 | 25880 ft | 435 kts | 325° |
| 2026-05-05 11:27 | 44.41108 | 6.63941 | 26005 ft | 434 kts | 326° |
| 2026-05-05 11:27 | 44.43611 | 6.61578 | 26130 ft | 433 kts | 326° |
| 2026-05-05 11:28 | 44.46077 | 6.59250 | 26253 ft | 432 kts | 326° |
| 2026-05-05 11:28 | 44.48600 | 6.56865 | 26379 ft | 432 kts | 326° |
| 2026-05-05 11:28 | 44.51053 | 6.54540 | 26503 ft | 431 kts | 325° |
| 2026-05-05 11:28 | 44.53536 | 6.52187 | 26628 ft | 430 kts | 326° |
| 2026-05-05 11:29 | 44.56011 | 6.49841 | 26752 ft | 429 kts | 326° |
| 2026-05-05 11:29 | 44.58480 | 6.47501 | 26878 ft | 428 kts | 326° |
| 2026-05-05 11:29 | 44.60950 | 6.45158 | 27002 ft | 427 kts | 325° |
| 2026-05-05 11:29 | 44.63409 | 6.42819 | 27127 ft | 427 kts | 325° |
| 2026-05-05 11:30 | 44.65863 | 6.40479 | 27252 ft | 426 kts | 325° |
| 2026-05-05 11:30 | 44.68316 | 6.38139 | 27378 ft | 425 kts | 325° |
| 2026-05-05 11:30 | 44.70762 | 6.35801 | 27502 ft | 424 kts | 325° |
| 2026-05-05 11:30 | 44.73202 | 6.33466 | 27627 ft | 424 kts | 325° |
| 2026-05-05 11:31 | 44.75592 | 6.31182 | 27750 ft | 423 kts | 325° |
| 2026-05-05 11:31 | 44.77998 | 6.28883 | 27873 ft | 423 kts | 325° |
| 2026-05-05 11:31 | 44.80427 | 6.26561 | 28010 ft | 422 kts | 325° |
| 2026-05-05 11:31 | 44.82862 | 6.24230 | 28135 ft | 421 kts | 325° |
| 2026-05-05 11:32 | 44.85230 | 6.21951 | 28258 ft | 421 kts | 325° |
| 2026-05-05 11:32 | 44.87646 | 6.19621 | 28382 ft | 420 kts | 325° |
| 2026-05-05 11:32 | 44.90059 | 6.17297 | 28506 ft | 419 kts | 325° |
| 2026-05-05 11:32 | 44.92471 | 6.14975 | 28632 ft | 419 kts | 325° |
| 2026-05-05 11:33 | 44.94871 | 6.12664 | 28756 ft | 418 kts | 325° |
| 2026-05-05 11:33 | 44.97271 | 6.10349 | 28881 ft | 417 kts | 325° |
| 2026-05-05 11:33 | 44.99669 | 6.08034 | 29006 ft | 416 kts | 325° |
| 2026-05-05 11:33 | 45.02057 | 6.05724 | 29132 ft | 416 kts | 325° |
| 2026-05-05 11:34 | 45.04442 | 6.03416 | 29256 ft | 415 kts | 325° |
| 2026-05-05 11:34 | 45.06818 | 6.01115 | 29381 ft | 414 kts | 325° |
| 2026-05-05 11:34 | 45.09168 | 5.98836 | 29504 ft | 413 kts | 325° |
| 2026-05-05 11:34 | 45.11543 | 5.96525 | 29630 ft | 412 kts | 325° |
| 2026-05-05 11:35 | 45.13909 | 5.94223 | 29756 ft | 411 kts | 325° |
| 2026-05-05 11:35 | 45.16268 | 5.91933 | 29908 ft | 410 kts | 325° |
| 2026-05-05 11:35 | 45.18594 | 5.89673 | 29996 ft | 411 kts | 325° |
| 2026-05-05 11:36 | 45.23309 | 5.85074 | 30009 ft | 413 kts | 325° |
| 2026-05-05 11:36 | 45.28080 | 5.80407 | 30010 ft | 418 kts | 325° |
| 2026-05-05 11:37 | 45.32899 | 5.75682 | 30010 ft | 422 kts | 325° |
| 2026-05-05 11:37 | 45.37736 | 5.70937 | 30010 ft | 426 kts | 325° |
| 2026-05-05 11:38 | 45.42636 | 5.66119 | 30009 ft | 430 kts | 325° |
| 2026-05-05 11:38 | 45.47587 | 5.61234 | 30009 ft | 433 kts | 325° |
| 2026-05-05 11:39 | 45.52486 | 5.56388 | 30008 ft | 425 kts | 325° |
| 2026-05-05 11:39 | 45.57533 | 5.51936 | 30025 ft | 428 kts | 335° |
| 2026-05-05 11:39 | 45.60257 | 5.50228 | 30149 ft | 426 kts | 336° |
| 2026-05-05 11:40 | 45.62968 | 5.48527 | 30273 ft | 425 kts | 336° |
| 2026-05-05 11:40 | 45.65668 | 5.46824 | 30397 ft | 423 kts | 336° |
| 2026-05-05 11:40 | 45.68356 | 5.45121 | 30522 ft | 422 kts | 335° |
| 2026-05-05 11:40 | 45.71038 | 5.43417 | 30646 ft | 421 kts | 335° |
| 2026-05-05 11:41 | 45.73685 | 5.41735 | 30769 ft | 420 kts | 335° |
| 2026-05-05 11:41 | 45.76352 | 5.40042 | 30894 ft | 418 kts | 335° |
| 2026-05-05 11:41 | 45.79011 | 5.38349 | 31018 ft | 417 kts | 335° |
| 2026-05-05 11:41 | 45.81656 | 5.36665 | 31160 ft | 415 kts | 335° |
| 2026-05-05 11:42 | 45.84293 | 5.34985 | 31284 ft | 414 kts | 335° |
| 2026-05-05 11:42 | 45.86919 | 5.33312 | 31409 ft | 412 kts | 335° |
| 2026-05-05 11:42 | 45.89513 | 5.31658 | 31533 ft | 411 kts | 335° |
| 2026-05-05 11:42 | 45.92128 | 5.29989 | 31658 ft | 409 kts | 335° |
| 2026-05-05 11:43 | 45.94726 | 5.28329 | 31782 ft | 408 kts | 335° |
| 2026-05-05 11:43 | 45.97314 | 5.26673 | 31907 ft | 407 kts | 335° |
| 2026-05-05 11:43 | 45.99903 | 5.25014 | 32031 ft | 406 kts | 335° |
| 2026-05-05 11:43 | 46.02481 | 5.23361 | 32156 ft | 405 kts | 335° |
| 2026-05-05 11:44 | 46.05077 | 5.21695 | 32021 ft | 411 kts | 335° |
| 2026-05-05 11:44 | 46.10297 | 5.18336 | 32010 ft | 415 kts | 335° |
| 2026-05-05 11:45 | 46.15601 | 5.14909 | 32009 ft | 418 kts | 335° |
| 2026-05-05 11:45 | 46.20944 | 5.11484 | 32008 ft | 422 kts | 338° |
| 2026-05-05 11:46 | 46.26649 | 5.09457 | 32009 ft | 425 kts | 354° |
| 2026-05-05 11:46 | 46.32590 | 5.09333 | 32009 ft | 428 kts | 360° |
| 2026-05-05 11:47 | 46.38505 | 5.09294 | 32044 ft | 429 kts | 359° |
| 2026-05-05 11:47 | 46.44525 | 5.09302 | 32010 ft | 433 kts | 0° |
| 2026-05-05 11:48 | 46.53597 | 5.09399 | 32009 ft | 436 kts | 0° |
| 2026-05-05 11:48 | 46.59683 | 5.09430 | 32009 ft | 438 kts | 360° |
| 2026-05-05 11:49 | 46.65756 | 5.09449 | 32009 ft | 440 kts | 360° |
| 2026-05-05 11:49 | 46.71885 | 5.09465 | 32009 ft | 441 kts | 360° |
| 2026-05-05 11:50 | 46.78037 | 5.09493 | 32009 ft | 443 kts | 360° |
| 2026-05-05 11:50 | 46.84216 | 5.09523 | 32009 ft | 444 kts | 0° |
| 2026-05-05 11:51 | 46.90411 | 5.09565 | 32009 ft | 446 kts | 360° |
| 2026-05-05 11:51 | 46.96628 | 5.09589 | 32010 ft | 448 kts | 360° |
| 2026-05-05 11:52 | 47.02873 | 5.09608 | 32009 ft | 449 kts | 360° |
| 2026-05-05 11:52 | 47.09148 | 5.09637 | 32010 ft | 455 kts | 360° |
| 2026-05-05 11:53 | 47.15501 | 5.09668 | 32009 ft | 456 kts | 360° |
| 2026-05-05 11:53 | 47.21845 | 5.09694 | 32009 ft | 456 kts | 360° |
| 2026-05-05 11:54 | 47.27131 | 5.09718 | 32009 ft | 457 kts | 360° |
| 2026-05-05 11:54 | 47.33494 | 5.09746 | 32009 ft | 457 kts | 360° |
| 2026-05-05 11:55 | 47.39859 | 5.09778 | 32009 ft | 457 kts | 360° |
| 2026-05-05 11:55 | 47.46188 | 5.09802 | 32009 ft | 457 kts | 360° |
| 2026-05-05 11:56 | 47.52557 | 5.09782 | 32008 ft | 457 kts | 356° |
| 2026-05-05 11:56 | 47.55724 | 5.09169 | 31794 ft | 462 kts | 347° |
| 2026-05-05 11:56 | 47.58812 | 5.07802 | 31546 ft | 467 kts | 338° |
| 2026-05-05 11:57 | 47.61765 | 5.05744 | 31298 ft | 471 kts | 329° |
| 2026-05-05 11:57 | 47.64459 | 5.02951 | 31048 ft | 476 kts | 320° |
| 2026-05-05 11:57 | 47.67009 | 4.99790 | 30795 ft | 481 kts | 319° |
| 2026-05-05 11:57 | 47.69542 | 4.96604 | 30171 ft | 484 kts | 319° |
| 2026-05-05 11:58 | 47.72122 | 4.93332 | 28874 ft | 491 kts | 319° |
| 2026-05-05 11:58 | 47.74738 | 4.90002 | 27612 ft | 497 kts | 319° |
| 2026-05-05 11:58 | 47.77354 | 4.86667 | 27108 ft | 494 kts | 319° |
| 2026-05-05 11:58 | 47.79967 | 4.83339 | 26858 ft | 494 kts | 319° |
| 2026-05-05 11:59 | 47.82580 | 4.80019 | 26608 ft | 493 kts | 319° |
| 2026-05-05 11:59 | 47.85183 | 4.76718 | 26357 ft | 491 kts | 319° |
| 2026-05-05 11:59 | 47.87774 | 4.73427 | 26144 ft | 488 kts | 319° |
| 2026-05-05 11:59 | 47.90356 | 4.70136 | 25888 ft | 487 kts | 319° |
| 2026-05-05 12:00 | 47.92920 | 4.66858 | 25555 ft | 484 kts | 319° |
| 2026-05-05 12:00 | 47.95468 | 4.63593 | 25230 ft | 481 kts | 319° |
| 2026-05-05 12:00 | 47.98001 | 4.60345 | 24907 ft | 478 kts | 319° |
| 2026-05-05 12:00 | 48.00520 | 4.57121 | 24586 ft | 475 kts | 319° |
| 2026-05-05 12:01 | 48.02998 | 4.53945 | 24271 ft | 473 kts | 319° |
| 2026-05-05 12:01 | 48.05500 | 4.50725 | 23959 ft | 468 kts | 319° |
| 2026-05-05 12:01 | 48.07963 | 4.47555 | 23634 ft | 467 kts | 319° |
| 2026-05-05 12:01 | 48.10419 | 4.44395 | 23323 ft | 465 kts | 319° |
| 2026-05-05 12:02 | 48.12830 | 4.41288 | 23015 ft | 462 kts | 319° |
| 2026-05-05 12:02 | 48.15260 | 4.38150 | 22705 ft | 460 kts | 319° |
| 2026-05-05 12:02 | 48.17674 | 4.35025 | 22395 ft | 457 kts | 319° |
| 2026-05-05 12:02 | 48.20073 | 4.31913 | 22088 ft | 454 kts | 319° |
| 2026-05-05 12:03 | 48.22455 | 4.28818 | 21782 ft | 452 kts | 319° |
| 2026-05-05 12:03 | 48.24822 | 4.25740 | 21480 ft | 449 kts | 319° |
| 2026-05-05 12:03 | 48.27032 | 4.22446 | 21178 ft | 446 kts | 310° |
| 2026-05-05 12:03 | 48.29006 | 4.18863 | 20878 ft | 444 kts | 309° |
| 2026-05-05 12:04 | 48.30969 | 4.15283 | 20579 ft | 442 kts | 309° |
| 2026-05-05 12:04 | 48.32917 | 4.11727 | 20283 ft | 439 kts | 309° |
| 2026-05-05 12:04 | 48.34841 | 4.08217 | 19902 ft | 430 kts | 309° |
| 2026-05-05 12:04 | 48.36726 | 4.04773 | 19549 ft | 423 kts | 309° |
| 2026-05-05 12:05 | 48.38567 | 4.01409 | 19207 ft | 420 kts | 309° |
| 2026-05-05 12:05 | 48.40423 | 3.98016 | 18819 ft | 417 kts | 309° |
| 2026-05-05 12:05 | 48.42261 | 3.94650 | 18436 ft | 414 kts | 309° |
| 2026-05-05 12:05 | 48.44085 | 3.91299 | 18055 ft | 412 kts | 309° |
| 2026-05-05 12:06 | 48.45893 | 3.87973 | 17677 ft | 409 kts | 309° |
| 2026-05-05 12:06 | 48.47691 | 3.84661 | 17302 ft | 406 kts | 309° |
| 2026-05-05 12:06 | 48.49473 | 3.81368 | 16928 ft | 404 kts | 309° |
| 2026-05-05 12:06 | 48.51239 | 3.78100 | 16556 ft | 401 kts | 309° |
| 2026-05-05 12:07 | 48.52998 | 3.74853 | 16188 ft | 398 kts | 309° |
| 2026-05-05 12:07 | 48.54629 | 3.71492 | 15983 ft | 395 kts | 302° |
| 2026-05-05 12:07 | 48.56103 | 3.68048 | 15985 ft | 396 kts | 302° |
| 2026-05-05 12:07 | 48.57605 | 3.64557 | 15489 ft | 394 kts | 302° |
| 2026-05-05 12:08 | 48.59090 | 3.61107 | 15284 ft | 391 kts | 302° |
| 2026-05-05 12:08 | 48.60575 | 3.57663 | 15082 ft | 390 kts | 302° |
| 2026-05-05 12:08 | 48.62053 | 3.54222 | 14853 ft | 389 kts | 302° |
| 2026-05-05 12:08 | 48.63518 | 3.50795 | 14590 ft | 387 kts | 302° |
| 2026-05-05 12:09 | 48.64954 | 3.47430 | 14341 ft | 385 kts | 302° |
| 2026-05-05 12:09 | 48.66402 | 3.44036 | 14090 ft | 383 kts | 302° |
| 2026-05-05 12:09 | 48.67850 | 3.40644 | 13838 ft | 382 kts | 302° |
| 2026-05-05 12:09 | 48.69287 | 3.37273 | 13589 ft | 380 kts | 302° |
| 2026-05-05 12:10 | 48.70718 | 3.33918 | 13339 ft | 378 kts | 302° |
| 2026-05-05 12:10 | 48.72142 | 3.30577 | 13091 ft | 377 kts | 302° |
| 2026-05-05 12:10 | 48.73560 | 3.27247 | 12844 ft | 375 kts | 302° |
| 2026-05-05 12:10 | 48.74970 | 3.23929 | 12598 ft | 374 kts | 302° |
| 2026-05-05 12:11 | 48.76370 | 3.20625 | 12353 ft | 372 kts | 302° |
| 2026-05-05 12:11 | 48.77761 | 3.17332 | 12108 ft | 370 kts | 302° |
| 2026-05-05 12:11 | 48.79140 | 3.14060 | 11869 ft | 368 kts | 302° |
| 2026-05-05 12:11 | 48.80515 | 3.10793 | 11629 ft | 367 kts | 302° |
| 2026-05-05 12:12 | 48.81884 | 3.07537 | 11389 ft | 366 kts | 302° |
| 2026-05-05 12:12 | 48.83254 | 3.04282 | 11148 ft | 364 kts | 302° |
| 2026-05-05 12:12 | 48.84672 | 3.01122 | 10907 ft | 360 kts | 308° |
| 2026-05-05 12:12 | 48.86311 | 2.98350 | 10765 ft | 345 kts | 312° |
| 2026-05-05 12:13 | 48.87900 | 2.95720 | 10639 ft | 332 kts | 312° |
| 2026-05-05 12:13 | 48.89428 | 2.93186 | 10514 ft | 320 kts | 312° |
| 2026-05-05 12:13 | 48.90905 | 2.90731 | 10383 ft | 309 kts | 312° |
| 2026-05-05 12:13 | 48.92263 | 2.88263 | 10191 ft | 301 kts | 302° |
| 2026-05-05 12:14 | 48.93164 | 2.85422 | 10058 ft | 298 kts | 287° |
| 2026-05-05 12:14 | 48.93527 | 2.82334 | 10000 ft | 296 kts | 271° |
| 2026-05-05 12:14 | 48.93419 | 2.79205 | 10008 ft | 297 kts | 265° |
| 2026-05-05 12:14 | 48.93252 | 2.76077 | 10009 ft | 297 kts | 265° |
| 2026-05-05 12:15 | 48.93089 | 2.72938 | 9763 ft | 298 kts | 265° |
| 2026-05-05 12:15 | 48.92927 | 2.69795 | 9330 ft | 298 kts | 265° |
| 2026-05-05 12:15 | 48.92764 | 2.66667 | 8988 ft | 295 kts | 265° |
| 2026-05-05 12:15 | 48.92600 | 2.63584 | 8783 ft | 291 kts | 265° |
| 2026-05-05 12:16 | 48.92433 | 2.60507 | 8593 ft | 290 kts | 265° |
| 2026-05-05 12:16 | 48.92265 | 2.57461 | 8405 ft | 289 kts | 265° |
| 2026-05-05 12:16 | 48.92097 | 2.54417 | 8220 ft | 288 kts | 265° |
| 2026-05-05 12:16 | 48.91928 | 2.51390 | 8037 ft | 285 kts | 265° |
| 2026-05-05 12:17 | 48.91764 | 2.48441 | 7867 ft | 277 kts | 265° |
| 2026-05-05 12:17 | 48.91666 | 2.46690 | 7753 ft | 282 kts | 265° |
| 2026-05-05 12:17 | 48.91621 | 2.45864 | 7701 ft | 283 kts | 265° |
| 2026-05-05 12:17 | 48.91458 | 2.42908 | 7486 ft | 277 kts | 265° |
| 2026-05-05 12:18 | 48.91372 | 2.41355 | 7409 ft | 277 kts | 265° |
| 2026-05-05 12:18 | 48.91212 | 2.38397 | 7242 ft | 280 kts | 265° |
| 2026-05-05 12:18 | 48.91053 | 2.35508 | 7102 ft | 268 kts | 265° |
| 2026-05-05 12:18 | 48.90902 | 2.32775 | 6977 ft | 257 kts | 265° |
| 2026-05-05 12:19 | 48.90753 | 2.30115 | 6826 ft | 248 kts | 264° |
| 2026-05-05 12:19 | 48.90605 | 2.27521 | 6714 ft | 247 kts | 264° |
| 2026-05-05 12:19 | 48.90455 | 2.24915 | 6565 ft | 247 kts | 264° |
| 2026-05-05 12:19 | 48.90303 | 2.22321 | 6409 ft | 246 kts | 264° |
| 2026-05-05 12:20 | 48.90153 | 2.19733 | 6252 ft | 245 kts | 264° |
| 2026-05-05 12:20 | 48.90006 | 2.17192 | 6139 ft | 236 kts | 264° |
| 2026-05-05 12:20 | 48.89866 | 2.14761 | 6041 ft | 226 kts | 264° |
| 2026-05-05 12:20 | 48.89730 | 2.12404 | 5943 ft | 223 kts | 265° |
| 2026-05-05 12:21 | 48.89614 | 2.10060 | 5879 ft | 222 kts | 267° |
| 2026-05-05 12:21 | 48.89864 | 2.07778 | 5699 ft | 220 kts | 297° |
| 2026-05-05 12:21 | 48.90891 | 2.06109 | 5419 ft | 219 kts | 332° |
| 2026-05-05 12:21 | 48.92354 | 2.05633 | 5183 ft | 216 kts | 8° |
| 2026-05-05 12:22 | 48.93712 | 2.06557 | 5159 ft | 219 kts | 44° |
| 2026-05-05 12:22 | 48.94633 | 2.08421 | 5160 ft | 222 kts | 60° |
| 2026-05-05 12:22 | 48.95398 | 2.10469 | 5150 ft | 223 kts | 62° |
| 2026-05-05 12:22 | 48.96141 | 2.12542 | 5151 ft | 223 kts | 62° |
| 2026-05-05 12:23 | 48.96846 | 2.14638 | 5146 ft | 223 kts | 71° |
| 2026-05-05 12:23 | 48.97114 | 2.16948 | 5155 ft | 222 kts | 86° |
| 2026-05-05 12:23 | 48.97232 | 2.19300 | 5038 ft | 223 kts | 86° |
| 2026-05-05 12:23 | 48.97356 | 2.21648 | 4785 ft | 222 kts | 85° |
| 2026-05-05 12:24 | 48.97488 | 2.23996 | 4500 ft | 223 kts | 83° |
| 2026-05-05 12:24 | 48.97620 | 2.26322 | 4208 ft | 223 kts | 83° |
| 2026-05-05 12:24 | 48.97753 | 2.28684 | 3912 ft | 224 kts | 83° |
| 2026-05-05 12:24 | 48.97886 | 2.31048 | 3610 ft | 223 kts | 83° |
| 2026-05-05 12:25 | 48.98014 | 2.33343 | 3314 ft | 211 kts | 82° |
| 2026-05-05 12:25 | 48.98135 | 2.35517 | 3043 ft | 201 kts | 82° |
| 2026-05-05 12:25 | 48.98251 | 2.37595 | 2787 ft | 194 kts | 82° |
| 2026-05-05 12:25 | 48.98364 | 2.39629 | 2533 ft | 192 kts | 85° |
| 2026-05-05 12:26 | 48.98473 | 2.41590 | 2307 ft | 180 kts | 86° |
| 2026-05-05 12:26 | 48.98573 | 2.43378 | 2065 ft | 161 kts | 86° |
| 2026-05-05 12:26 | 48.98663 | 2.45017 | 1846 ft | 151 kts | 86° |
| 2026-05-05 12:26 | 48.98751 | 2.46594 | 1629 ft | 148 kts | 86° |
| 2026-05-05 12:27 | 48.98837 | 2.48144 | 1440 ft | 146 kts | 86° |
| 2026-05-05 12:27 | 48.98920 | 2.49681 | 1270 ft | 145 kts | 86° |
| 2026-05-05 12:27 | 48.99004 | 2.51208 | 1076 ft | 145 kts | 86° |
| 2026-05-05 12:27 | 48.99088 | 2.52736 | 873 ft | 144 kts | 86° |
| 2026-05-05 12:28 | 48.99169 | 2.54254 | 693 ft | 144 kts | 86° |
| 2026-05-05 12:28 | 48.99250 | 2.55768 | 504 ft | 143 kts | 86° |
| 2026-05-05 12:28 | 48.99329 | 2.57269 | 355 ft | 135 kts | 87° |
| 2026-05-05 12:28 | 48.99392 | 2.58469 | 353 ft | 89 kts | 85° |
| 2026-05-05 12:29 | 48.99434 | 2.59099 | 351 ft | 30 kts | 78° |
| 2026-05-05 12:29 | 48.99510 | 2.59394 | 354 ft | 29 kts | 65° |
| 2026-05-05 12:29 | 48.99569 | 2.59596 | 354 ft | 16 kts | 65° |
| 2026-05-05 12:29 | 48.99599 | 2.59675 | 354 ft | 2 kts | 39° |
| 2026-05-05 12:30 | 48.99607 | 2.59681 | 354 ft | 1 kts | 30° |
| 2026-05-05 12:30 | 48.99609 | 2.59683 | 354 ft | 0 kts | 28° |
| 2026-05-05 12:30 | 48.99645 | 2.59694 | 354 ft | 11 kts | 3° |
| 2026-05-05 12:30 | 48.99713 | 2.59688 | 354 ft | 9 kts | 355° |
| 2026-05-05 12:31 | 48.99773 | 2.59680 | 354 ft | 8 kts | 355° |
| 2026-05-05 12:31 | 48.99835 | 2.59671 | 353 ft | 8 kts | 354° |
| 2026-05-05 12:31 | 48.99876 | 2.59665 | 354 ft | 6 kts | 355° |
| 2026-05-05 12:31 | 48.99914 | 2.59660 | 354 ft | 5 kts | 355° |
| 2026-05-05 12:32 | 48.99946 | 2.59656 | 354 ft | 4 kts | 355° |
| 2026-05-05 12:32 | 48.99975 | 2.59653 | 354 ft | 8 kts | 355° |
| 2026-05-05 12:32 | 49.00040 | 2.59645 | 354 ft | 9 kts | 356° |
| 2026-05-05 12:32 | 49.00090 | 2.59640 | 354 ft | 6 kts | 356° |
| 2026-05-05 12:33 | 49.00118 | 2.59637 | 354 ft | 3 kts | 356° |
| 2026-05-05 12:33 | 49.00138 | 2.59635 | 354 ft | 2 kts | 356° |
| 2026-05-05 12:33 | 49.00190 | 2.59627 | 354 ft | 13 kts | 355° |
| 2026-05-05 12:33 | 49.00282 | 2.59617 | 354 ft | 16 kts | 355° |
| 2026-05-05 12:34 | 49.00408 | 2.59601 | 354 ft | 19 kts | 355° |
| 2026-05-05 12:34 | 49.00547 | 2.59584 | 354 ft | 21 kts | 355° |
| 2026-05-05 12:34 | 49.00699 | 2.59565 | 354 ft | 23 kts | 355° |
| 2026-05-05 12:34 | 49.00858 | 2.59546 | 354 ft | 22 kts | 356° |
| 2026-05-05 12:35 | 49.00976 | 2.59524 | 354 ft | 13 kts | 336° |
| 2026-05-05 12:35 | 49.00999 | 2.59407 | 354 ft | 12 kts | 266° |
| 2026-05-05 12:35 | 49.00993 | 2.59280 | 354 ft | 12 kts | 266° |
| 2026-05-05 12:35 | 49.00988 | 2.59154 | 354 ft | 12 kts | 266° |
| 2026-05-05 12:36 | 49.00972 | 2.59032 | 354 ft | 12 kts | 253° |
| 2026-05-05 12:36 | 49.00952 | 2.58910 | 354 ft | 12 kts | 263° |
| 2026-05-05 12:36 | 49.00944 | 2.58772 | 354 ft | 14 kts | 265° |
| 2026-05-05 12:36 | 49.00937 | 2.58621 | 354 ft | 15 kts | 266° |
| 2026-05-05 12:37 | 49.00927 | 2.58456 | 354 ft | 16 kts | 265° |
| 2026-05-05 12:37 | 49.00920 | 2.58277 | 354 ft | 18 kts | 267° |
| 2026-05-05 12:37 | 49.00910 | 2.58107 | 354 ft | 17 kts | 264° |
| 2026-05-05 12:37 | 49.00901 | 2.57923 | 354 ft | 18 kts | 266° |
| 2026-05-05 12:38 | 49.00893 | 2.57806 | 354 ft | 14 kts | 261° |
| 2026-05-05 12:38 | 49.00848 | 2.57730 | 354 ft | 7 kts | 196° |
| 2026-05-05 12:38 | 49.00839 | 2.57728 | 354 ft | 2 kts | 184° |
| 2026-05-05 12:38 | 49.00827 | 2.57732 | 354 ft | 2 kts | 168° |
| 2026-05-05 12:39 | 49.00808 | 2.57753 | 354 ft | 5 kts | 140° |
| 2026-05-05 12:39 | 49.00771 | 2.57774 | 354 ft | 7 kts | 164° |
| 2026-05-05 12:39 | 49.00741 | 2.57788 | 354 ft | 3 kts | 162° |
| 2026-05-05 12:39 | 49.00732 | 2.57792 | 354 ft | 0 kts | 162° |